Time;durP1;ratioP1;P1;durP2;ratioP2;P2;SDS_P1;SDS_P2;PMS_P1;PMS_P2;Temp;Humidity;BMP_temperature;BMP_pressure;BME280_temperature;BME280_humidity;BME280_pressure;Samples;Min_cycle;Max_cycle;Signal;HPM_P1;HPM_P2
2022/07/07 00:01:45;;;;;;;11.33;8.03;;;;;;;24.39;54.41;98948.53;5055242;28;20052;-66
2022/07/07 00:04:13;;;;;;;11.40;8.10;;;;;;;24.37;54.38;98951.00;5072671;28;20045;-70
2022/07/07 00:06:40;;;;;;;12.18;7.57;;;;;;;24.39;54.53;98946.47;5072169;28;20127;-69
2022/07/07 00:09:07;;;;;;;13.48;7.63;;;;;;;24.41;54.26;98949.69;5072428;28;20452;-69
2022/07/07 00:11:34;;;;;;;12.35;9.05;;;;;;;24.42;54.07;98953.34;5072561;28;20154;-70
2022/07/07 00:14:01;;;;;;;11.80;7.75;;;;;;;24.40;54.14;98950.94;5072497;28;20079;-70
2022/07/07 00:16:28;;;;;;;13.43;7.93;;;;;;;24.34;54.44;98943.38;5072627;28;20052;-66
2022/07/07 00:18:55;;;;;;;11.63;7.40;;;;;;;24.34;54.57;98946.22;5072172;28;20110;-66
2022/07/07 00:21:22;;;;;;;14.05;7.97;;;;;;;24.36;54.47;98940.88;5054535;28;20088;-67
2022/07/07 00:23:49;;;;;;;10.30;7.50;;;;;;;24.35;54.42;98947.81;5072097;28;20047;-67
2022/07/07 00:26:16;;;;;;;12.40;8.10;;;;;;;24.34;54.41;98934.84;5072676;28;20052;-68
2022/07/07 00:28:43;;;;;;;12.32;8.43;;;;;;;24.29;54.48;98941.84;5075934;28;20062;-69
2022/07/07 00:31:10;;;;;;;15.43;8.05;;;;;;;24.24;54.62;98944.38;5076461;28;20539;-67
2022/07/07 00:33:37;;;;;;;13.07;8.05;;;;;;;24.25;54.45;98946.78;5075969;28;20044;-68
2022/07/07 00:36:07;;;;;;;12.15;7.82;;;;;;;24.21;54.55;98937.53;5076244;28;20056;-67
2022/07/07 00:38:34;;;;;;;;;;;;;;;24.08;54.81;98950.81;5056233;28;20052;-68
2022/07/07 00:41:01;;;;;;;16.15;8.27;;;;;;;24.10;54.48;98947.53;5038883;28;19966;-67
2022/07/07 00:43:36;;;;;;;12.15;7.32;;;;;;;24.15;54.44;98938.47;5055850;28;20136;-66
2022/07/07 00:46:03;;;;;;;12.48;7.78;;;;;;;24.14;54.30;98945.41;5056339;28;20516;-66
2022/07/07 00:48:34;;;;;;;11.45;7.00;;;;;;;24.16;54.22;98943.72;5055560;28;20056;-66
2022/07/07 00:51:03;;;;;;;13.35;7.72;;;;;;;24.12;54.03;98936.50;5055645;28;20375;-68
2022/07/07 00:53:30;;;;;;;10.15;7.05;;;;;;;24.14;54.28;98934.03;5055475;28;20057;-69
2022/07/07 00:55:57;;;;;;;11.63;7.70;;;;;;;24.11;54.09;98940.59;5055866;28;20056;-69
2022/07/07 00:58:24;;;;;;;12.98;7.80;;;;;;;24.09;54.25;98932.50;5055920;28;20075;-71
2022/07/07 01:00:51;;;;;;;14.07;7.60;;;;;;;24.08;54.28;98942.28;5056010;28;20526;-69
2022/07/07 01:03:19;;;;;;;9.68;7.68;;;;;;;24.04;54.14;98935.84;5055354;28;20107;-70
2022/07/07 01:05:48;;;;;;;14.45;8.48;;;;;;;24.04;54.15;98935.84;5070774;28;20052;-69
2022/07/07 01:08:15;;;;;;;16.97;7.20;;;;;;;24.02;54.00;98937.53;5075855;28;20098;-69
2022/07/07 01:10:43;;;;;;;13.30;8.40;;;;;;;24.05;54.20;98936.66;5075571;28;20056;-69
2022/07/07 01:13:10;;;;;;;14.70;7.80;;;;;;;24.07;54.47;98939.88;5057806;28;20459;-70
2022/07/07 01:15:37;;;;;;;12.88;7.15;;;;;;;24.02;54.39;98932.66;5075242;28;20507;-70
2022/07/07 01:18:06;;;;;;;16.27;7.65;;;;;;;24.03;54.45;98944.81;5075360;28;20071;-69
2022/07/07 01:20:37;;;;;;;11.90;7.05;;;;;;;24.07;54.12;98939.88;5075155;28;20044;-70
2022/07/07 01:23:06;;;;;;;10.90;7.68;;;;;;;24.05;54.25;98942.34;5075195;28;20411;-70
2022/07/07 01:25:33;;;;;;;11.02;7.68;;;;;;;24.05;54.33;98945.19;5075339;28;20063;-69
2022/07/07 01:28:00;;;;;;;12.73;8.02;;;;;;;24.03;54.37;98947.66;5075266;28;20079;-69
2022/07/07 01:30:27;;;;;;;14.52;8.48;;;;;;;24.01;54.47;98950.16;5075232;28;20507;-70
2022/07/07 01:32:54;;;;;;;12.65;7.70;;;;;;;23.99;54.72;98950.59;5075114;28;20512;-69
2022/07/07 01:35:21;;;;;;;10.50;7.43;;;;;;;23.99;54.79;98944.09;5074825;28;20082;-70
2022/07/07 01:37:48;;;;;;;13.20;7.82;;;;;;;23.95;54.72;98931.97;5074566;28;20052;-69
2022/07/07 01:40:15;;;;;;;17.67;8.07;;;;;;;23.97;54.56;98940.88;5074022;28;20059;-70
2022/07/07 01:42:41;;;;;;;10.25;7.47;;;;;;;23.95;54.59;98941.31;5074625;28;20094;-69
2022/07/07 01:45:09;;;;;;;13.68;7.60;;;;;;;23.91;54.80;98937.72;5075264;28;20053;-69
2022/07/07 01:47:36;;;;;;;9.60;7.10;;;;;;;23.93;54.87;98940.13;5074643;28;20057;-69
2022/07/07 01:50:04;;;;;;;13.65;7.72;;;;;;;23.93;54.88;98940.13;5074943;28;20070;-70
2022/07/07 01:52:31;;;;;;;14.77;7.77;;;;;;;23.89;54.95;98934.50;5074361;28;20052;-71
2022/07/07 01:54:58;;;;;;;12.25;7.70;;;;;;;23.92;54.69;98936.47;5074415;28;20392;-68
2022/07/07 01:57:25;;;;;;;11.20;7.43;;;;;;;23.95;54.95;98932.78;5074714;28;20049;-68
2022/07/07 01:59:52;;;;;;;13.55;8.65;;;;;;;23.93;54.97;98940.13;5074353;28;20056;-67
2022/07/07 02:02:19;;;;;;;10.55;8.02;;;;;;;23.83;55.08;98929.78;5074544;28;20056;-67
2022/07/07 02:04:47;;;;;;;16.35;7.88;;;;;;;23.78;55.14;98924.59;5074854;28;20062;-68
2022/07/07 02:07:14;;;;;;;15.00;8.10;;;;;;;23.75;55.12;98931.16;5056715;28;20140;-69
2022/07/07 02:09:41;;;;;;;11.35;7.63;;;;;;;23.76;54.97;98941.28;5074398;28;20459;-68
2022/07/07 02:12:08;;;;;;;11.68;7.57;;;;;;;23.80;55.08;98942.03;5074333;28;20052;-67
2022/07/07 02:14:35;;;;;;;19.67;8.73;;;;;;;23.84;54.81;98942.75;5074306;28;20045;-67
2022/07/07 02:17:02;;;;;;;19.67;8.27;;;;;;;23.81;54.70;98941.59;5074032;28;20127;-68
2022/07/07 02:19:28;;;;;;;15.27;7.72;;;;;;;23.81;54.96;98933.06;5056971;28;20148;-68
2022/07/07 02:21:55;;;;;;;14.50;8.40;;;;;;;23.88;54.82;98937.78;5073768;28;20054;-67
2022/07/07 02:24:22;;;;;;;12.13;7.57;;;;;;;23.90;54.31;98935.31;5074065;28;20075;-68
2022/07/07 02:26:49;;;;;;;9.35;7.22;;;;;;;23.89;54.67;98933.72;5074313;28;20049;-67
2022/07/07 02:29:16;;;;;;;14.40;7.80;;;;;;;23.94;54.62;98942.53;5073849;28;20057;-67
2022/07/07 02:31:43;;;;;;;11.50;7.28;;;;;;;24.01;54.27;98935.94;5074049;28;20076;-67
2022/07/07 02:34:10;;;;;;;10.15;6.57;;;;;;;24.02;54.32;98935.50;5073919;28;20462;-66
2022/07/07 02:36:37;;;;;;;11.90;7.07;;;;;;;23.97;54.29;98943.72;5056364;28;20094;-66
2022/07/07 02:39:04;;;;;;;22.23;7.35;;;;;;;23.95;54.51;98954.72;5055766;28;20079;-66
2022/07/07 02:41:31;;;;;;;16.52;7.53;;;;;;;24.00;54.14;98945.69;5055577;28;20427;-67
2022/07/07 02:43:58;;;;;;;11.18;7.43;;;;;;;24.05;54.15;98963.06;5073401;28;20139;-68
2022/07/07 02:46:25;;;;;;;16.08;7.95;;;;;;;24.04;53.80;98950.06;5074076;28;20044;-68
2022/07/07 02:48:53;;;;;;;15.25;7.47;;;;;;;24.11;54.00;98955.63;5074090;28;20049;-68
2022/07/07 02:51:19;;;;;;;10.27;7.22;;;;;;;24.11;53.79;98946.28;5073118;28;20511;-66
2022/07/07 02:53:46;;;;;;;10.50;7.22;;;;;;;24.12;53.76;98957.22;5073401;28;20089;-71
2022/07/07 02:56:13;;;;;;;13.85;7.10;;;;;;;24.24;53.60;98956.56;5073652;28;20040;-70
2022/07/07 02:58:40;;;;;;;12.93;6.78;;;;;;;24.28;53.92;98962.19;5055562;28;20056;-69
2022/07/07 03:01:07;;;;;;;14.90;7.22;;;;;;;24.31;53.58;98967.00;5053492;28;20107;-69
2022/07/07 03:03:34;;;;;;;11.27;8.00;;;;;;;24.28;53.63;98974.34;5053464;28;20072;-70
2022/07/07 03:06:01;;;;;;;11.25;7.57;;;;;;;24.28;53.57;98957.28;5076729;28;20044;-70
2022/07/07 03:08:28;;;;;;;10.10;7.80;;;;;;;24.38;53.45;98964.78;5093489;28;20060;-68
2022/07/07 03:10:58;;;;;;;11.80;7.65;;;;;;;24.41;53.46;98963.09;5093572;28;20472;-69
2022/07/07 03:13:26;;;;;;;11.20;7.90;;;;;;;24.43;53.63;98963.47;5093405;28;20051;-69
2022/07/07 03:15:54;;;;;;;13.65;7.82;;;;;;;24.35;53.80;98962.81;5093484;28;20055;-70
2022/07/07 03:18:24;;;;;;;10.70;7.63;;;;;;;24.40;53.87;98962.31;5093171;28;20113;-68
2022/07/07 03:20:54;;;;;;;16.73;8.25;;;;;;;24.44;53.63;98971.56;5075051;28;20048;-69
2022/07/07 03:23:21;;;;;;;11.75;7.85;;;;;;;24.50;53.40;98969.00;5093115;28;20598;-70
2022/07/07 03:25:48;;;;;;;17.00;7.72;;;;;;;24.61;53.25;98975.25;5093218;28;20048;-69
2022/07/07 03:28:15;;;;;;;12.93;7.85;;;;;;;24.66;53.20;98974.78;5075371;28;20044;-70
2022/07/07 03:30:42;;;;;;;10.75;7.85;;;;;;;24.70;53.37;98972.66;5092971;28;20049;-71
2022/07/07 03:33:09;;;;;;;11.65;8.45;;;;;;;24.70;53.48;98967.78;5080818;28;20087;-70
2022/07/07 03:35:38;;;;;;;9.20;7.78;;;;;;;24.63;53.36;98967.88;5055437;28;20080;-70
2022/07/07 03:38:05;;;;;;;10.75;7.28;;;;;;;24.66;53.70;98974.78;5072709;28;20504;-70
2022/07/07 03:40:34;;;;;;;12.48;8.55;;;;;;;24.75;53.17;98964.38;5072975;28;20142;-70
2022/07/07 03:43:01;;;;;;;9.18;7.30;;;;;;;24.76;53.20;98966.00;5072464;28;20573;-70
2022/07/07 03:45:28;;;;;;;15.90;7.82;;;;;;;24.82;53.29;98969.94;5072692;28;20121;-69
2022/07/07 03:47:55;;;;;;;19.95;8.15;;;;;;;24.78;53.01;98954.97;5073194;28;20076;-72
2022/07/07 03:50:22;;;;;;;13.55;7.90;;;;;;;24.85;53.00;98968.22;5072700;28;20053;-70
2022/07/07 03:52:49;;;;;;;10.48;7.75;;;;;;;24.93;53.06;98970.47;5072413;28;20131;-71
2022/07/07 03:55:16;;;;;;;14.18;8.20;;;;;;;24.96;53.20;98969.56;5072954;28;20144;-70
2022/07/07 03:57:42;;;;;;;14.48;8.05;;;;;;;24.98;52.82;98969.94;5072640;28;20094;-70
2022/07/07 04:00:10;;;;;;;12.90;8.05;;;;;;;25.00;52.79;98963.81;5072419;28;20139;-70
2022/07/07 04:02:37;;;;;;;10.38;7.80;;;;;;;25.15;52.75;98965.06;5072426;28;20372;-70
2022/07/07 04:05:04;;;;;;;14.52;7.93;;;;;;;25.29;52.53;98964.72;5072541;28;20264;-69
2022/07/07 04:07:33;;;;;;;12.55;8.15;;;;;;;25.42;52.26;98957.09;5072662;28;20056;-69
2022/07/07 04:10:01;;;;;;;11.77;7.32;;;;;;;25.48;51.57;98952.44;5072682;28;20130;-69
2022/07/07 04:12:29;;;;;;;11.57;8.15;;;;;;;25.55;51.70;98963.66;5072578;28;20049;-66
2022/07/07 04:14:57;;;;;;;11.27;7.80;;;;;;;25.66;51.36;98964.16;5072499;28;20053;-66
2022/07/07 04:17:24;;;;;;;12.88;8.43;;;;;;;25.74;51.48;98967.63;5054759;28;20140;-66
2022/07/07 04:19:51;;;;;;;11.52;7.72;;;;;;;25.79;51.41;98967.91;5072937;28;20131;-66
2022/07/07 04:22:18;;;;;;;11.32;7.05;;;;;;;25.94;50.90;98959.75;5072213;28;20089;-67
2022/07/07 04:24:45;;;;;;;14.65;8.70;;;;;;;26.07;50.62;98970.00;5072495;28;20040;-70
2022/07/07 04:27:12;;;;;;;13.02;7.63;;;;;;;26.02;50.92;98961.19;5072367;28;20049;-70
2022/07/07 04:29:39;;;;;;;18.55;8.85;;;;;;;26.00;50.74;98969.38;5072698;28;20500;-71
2022/07/07 04:32:06;;;;;;;13.85;8.30;;;;;;;26.09;50.81;98967.50;5054561;28;20061;-71
2022/07/07 04:34:33;;;;;;;17.92;8.02;;;;;;;26.21;50.39;98957.38;5072650;28;20044;-70
2022/07/07 04:37:00;;;;;;;11.65;7.70;;;;;;;26.27;50.50;98962.09;5072618;28;20090;-70
2022/07/07 04:39:27;;;;;;;9.65;7.15;;;;;;;26.38;50.20;98967.47;5072368;28;20083;-70
2022/07/07 04:41:55;;;;;;;12.07;7.55;;;;;;;26.40;49.95;98957.19;5072261;28;20466;-71
2022/07/07 04:44:22;;;;;;;12.05;7.07;;;;;;;26.41;50.02;98955.94;5056324;28;20471;-70
2022/07/07 04:46:49;;;;;;;12.30;7.90;;;;;;;26.40;50.28;98947.84;5052251;28;20188;-70
2022/07/07 04:49:16;;;;;;;17.02;8.70;;;;;;;26.45;50.05;98942.38;5051883;28;20114;-70
2022/07/07 04:51:46;;;;;;;10.60;7.50;;;;;;;26.61;49.96;98948.00;5050701;28;20049;-70
2022/07/07 04:54:14;;;;;;;11.73;7.82;;;;;;;26.72;49.68;98948.50;5051696;28;20057;-70
2022/07/07 04:56:41;;;;;;;16.17;8.20;;;;;;;26.67;50.07;98943.34;5052004;28;20154;-70
2022/07/07 04:59:08;;;;;;;10.18;8.20;;;;;;;26.65;49.65;98945.06;5052065;28;20393;-70
2022/07/07 05:01:35;;;;;;;12.52;8.10;;;;;;;26.71;49.65;98951.81;5052352;28;20067;-70
2022/07/07 05:04:02;;;;;;;18.92;8.05;;;;;;;26.79;49.34;98939.69;5065921;28;20054;-70
2022/07/07 05:06:29;;;;;;;11.15;8.20;;;;;;;26.93;49.24;98943.34;5071863;28;20110;-71
2022/07/07 05:08:56;;;;;;;14.45;7.25;;;;;;;27.11;48.89;98943.59;5053958;28;20048;-70
2022/07/07 05:11:23;;;;;;;13.82;7.15;;;;;;;27.31;48.66;98938.44;5071549;28;20507;-71
2022/07/07 05:13:50;;;;;;;11.02;8.00;;;;;;;27.78;47.97;98944.97;5073309;28;20507;-70
2022/07/07 05:16:17;;;;;;;10.98;7.07;;;;;;;28.08;47.28;98945.09;5076063;28;20048;-70
2022/07/07 05:18:44;;;;;;;10.80;7.40;;;;;;;28.31;47.15;98940.97;5075079;28;20045;-70
2022/07/07 05:21:11;;;;;;;10.88;8.18;;;;;;;28.78;45.47;98946.53;5066099;28;20064;-70
2022/07/07 05:23:38;;;;;;;12.60;7.18;;;;;;;29.02;44.57;98947.59;5054948;28;20053;-71
2022/07/07 05:26:05;;;;;;;14.98;7.53;;;;;;;29.34;44.38;98942.16;5055196;28;20051;-70
2022/07/07 05:28:33;;;;;;;9.07;6.10;;;;;;;29.44;43.66;98940.94;5037099;28;20056;-71
2022/07/07 05:31:00;;;;;;;11.35;6.32;;;;;;;29.19;43.22;98935.44;5055089;28;20136;-69
2022/07/07 05:33:27;;;;;;;9.48;6.35;;;;;;;28.79;44.25;98942.41;5055049;28;20136;-70
2022/07/07 05:35:55;;;;;;;11.50;6.35;;;;;;;28.49;44.42;98944.00;5055509;28;20045;-70
2022/07/07 05:38:28;;;;;;;9.57;6.28;;;;;;;28.42;44.37;98942.16;5054963;28;20087;-71
2022/07/07 05:40:55;;;;;;;13.77;6.22;;;;;;;28.52;44.45;98948.78;5055268;28;20076;-70
2022/07/07 05:43:22;;;;;;;13.75;6.95;;;;;;;28.63;44.13;98954.91;5054629;28;20045;-69
2022/07/07 05:45:49;;;;;;;11.93;6.20;;;;;;;28.73;43.88;98947.94;5054292;28;20145;-70
2022/07/07 05:48:17;;;;;;;10.82;7.05;;;;;;;28.72;43.44;98946.34;5054741;28;20140;-72
2022/07/07 05:50:44;;;;;;;9.80;6.93;;;;;;;28.66;43.96;98953.97;5054572;28;20060;-70
2022/07/07 05:53:11;;;;;;;11.73;6.68;;;;;;;28.64;43.69;98947.09;5068077;28;20063;-70
2022/07/07 05:55:38;;;;;;;10.77;6.13;;;;;;;28.70;44.15;98937.44;5074611;28;20127;-69
2022/07/07 05:58:04;;;;;;;10.15;6.18;;;;;;;28.96;43.52;98938.84;5074443;28;20044;-69
2022/07/07 06:00:31;;;;;;;9.88;6.78;;;;;;;29.12;42.38;98930.00;5074531;28;20056;-70
2022/07/07 06:02:58;;;;;;;16.10;7.03;;;;;;;29.07;42.53;98942.06;5074154;28;20519;-70
2022/07/07 06:05:25;;;;;;;7.82;6.13;;;;;;;29.28;41.87;98940.41;5055529;28;20454;-70
2022/07/07 06:07:52;;;;;;;15.73;6.35;;;;;;;29.59;41.51;98927.56;5073494;28;20044;-71
2022/07/07 06:10:19;;;;;;;12.10;6.70;;;;;;;29.94;41.48;98928.91;5073056;28;20064;-70
2022/07/07 06:12:46;;;;;;;14.57;7.75;;;;;;;30.66;40.66;98935.84;5073409;28;20040;-71
2022/07/07 06:15:14;;;;;;;34.65;19.40;;;;;;;32.07;37.94;98927.47;5073200;28;20526;-71
2022/07/07 06:17:41;;;;;;;11.55;6.38;;;;;;;34.69;32.48;98926.81;5073073;28;20415;-70
2022/07/07 06:20:29;;;;;;;10.60;5.45;;;;;;;37.23;28.20;98922.28;5072789;28;20067;-71
2022/07/07 06:22:56;;;;;;;10.90;5.82;;;;;;;37.97;27.31;98926.06;5062527;28;20054;-69
2022/07/07 06:25:24;;;;;;;8.95;5.65;;;;;;;36.15;29.35;98926.00;5059560;28;20044;-71
2022/07/07 06:27:50;;;;;;;13.15;5.80;;;;;;;35.01;31.15;98935.00;5073120;28;20044;-69
2022/07/07 06:30:17;;;;;;;8.57;6.00;;;;;;;34.15;31.38;98924.88;5054532;28;20052;-69
2022/07/07 06:32:44;;;;;;;11.93;5.70;;;;;;;33.12;32.97;98909.25;5072821;28;20052;-69
2022/07/07 06:35:14;;;;;;;11.43;5.30;;;;;;;32.23;34.21;98912.59;5060039;28;20059;-67
2022/07/07 06:37:41;;;;;;;10.98;7.22;;;;;;;31.71;35.52;98921.97;5071336;28;20080;-68
2022/07/07 06:40:09;;;;;;;13.10;6.57;;;;;;;31.56;36.59;98921.91;5072595;28;20418;-68
2022/07/07 06:42:38;;;;;;;12.85;7.45;;;;;;;31.44;37.09;98928.69;5070998;28;20424;-69
2022/07/07 06:45:06;;;;;;;10.90;7.22;;;;;;;31.45;37.16;98933.19;5069210;28;20067;-68
2022/07/07 06:47:33;;;;;;;17.50;7.00;;;;;;;31.81;36.87;98930.06;5072614;28;20110;-69
2022/07/07 06:50:00;;;;;;;13.77;7.45;;;;;;;32.46;35.92;98931.13;5071035;28;20079;-68
2022/07/07 06:52:28;;;;;;;;;;;;;;;32.30;36.28;98929.50;5062330;28;20649;-68
2022/07/07 06:54:58;;;;;;;11.55;7.75;;;;;;;32.48;36.36;98929.38;5072591;28;20318;-68
2022/07/07 06:57:25;;;;;;;18.52;7.85;;;;;;;34.40;33.05;98929.94;5072257;28;20071;-68
2022/07/07 06:59:52;;;;;;;14.35;7.75;;;;;;;38.05;27.88;98930.81;5072111;28;20134;-69
2022/07/07 07:02:19;;;;;;;10.60;7.22;;;;;;;41.45;23.35;98929.78;5071529;28;20036;-69
2022/07/07 07:04:47;;;;;;;11.63;7.10;;;;;;;44.07;20.39;98921.03;5072054;28;20384;-68
2022/07/07 07:07:14;;;;;;;10.65;7.13;;;;;;;45.99;18.14;98922.63;5071527;28;20048;-69
2022/07/07 07:09:46;;;;;;;10.55;8.10;;;;;;;47.76;16.74;98921.31;5072126;28;20048;-70
2022/07/07 07:12:13;;;;;;;17.83;6.88;;;;;;;49.01;15.21;98918.88;5069059;28;20102;-70
2022/07/07 07:14:40;;;;;;;13.25;5.82;;;;;;;48.96;14.76;98922.09;5072881;28;20056;-70
2022/07/07 07:17:07;;;;;;;14.53;5.80;;;;;;;49.06;14.42;98917.81;5071920;28;20044;-70
2022/07/07 07:19:34;;;;;;;14.15;5.95;;;;;;;49.37;13.60;98918.16;5073007;28;20152;-69
2022/07/07 07:22:01;;;;;;;13.38;5.57;;;;;;;50.06;13.70;98933.31;5071711;28;20062;-70
2022/07/07 07:24:28;;;;;;;19.70;5.75;;;;;;;50.71;12.46;98919.16;5071661;28;20043;-70
2022/07/07 07:26:55;;;;;;;13.13;5.60;;;;;;;51.61;11.89;98922.94;5071517;28;20056;-71
2022/07/07 07:29:22;;;;;;;14.50;5.90;;;;;;;52.64;10.95;98919.16;5070912;28;20055;-70
2022/07/07 07:31:49;;;;;;;7.40;5.13;;;;;;;52.53;11.15;98923.59;5067280;28;20511;-70
2022/07/07 07:34:16;;;;;;;9.05;5.22;;;;;;;51.88;11.23;98920.47;5071417;28;20090;-71
2022/07/07 07:36:43;;;;;;;14.45;5.00;;;;;;;52.04;11.19;98939.47;5069774;28;20035;-70
2022/07/07 07:39:11;;;;;;;13.43;4.90;;;;;;;51.46;11.20;98914.44;5071760;28;20060;-70
2022/07/07 07:41:39;;;;;;;9.50;5.65;;;;;;;49.95;12.39;98933.88;5072193;28;20044;-70
2022/07/07 07:44:06;;;;;;;7.88;5.28;;;;;;;50.19;11.83;98930.66;5072612;28;20444;-71
2022/07/07 07:46:32;;;;;;;31.05;16.25;;;;;;;50.44;11.52;98939.28;5054653;28;20389;-70
2022/07/07 07:49:03;;;;;;;17.70;5.68;;;;;;;51.22;10.97;98929.66;5072605;28;20052;-70
2022/07/07 07:51:32;;;;;;;11.05;5.63;;;;;;;52.48;10.04;98930.69;5071996;28;20079;-71
2022/07/07 07:53:59;;;;;;;12.00;5.72;;;;;;;53.10;9.68;98927.44;5070509;28;20531;-71
2022/07/07 07:56:26;;;;;;;9.85;6.03;;;;;;;53.53;9.56;98940.69;5071087;28;20036;-70
2022/07/07 07:58:53;;;;;;;9.15;5.65;;;;;;;53.83;9.45;98931.53;5070735;28;20045;-70
2022/07/07 08:01:19;;;;;;;;;;;;;;;54.23;9.59;98936.31;5070913;28;20059;-70
2022/07/07 08:03:46;;;;;;;11.15;5.72;;;;;;;54.94;8.77;98936.19;5070544;28;19925;-71
2022/07/07 08:06:13;;;;;;;8.10;6.13;;;;;;;55.29;8.55;98948.69;5053070;28;20048;-71
2022/07/07 08:08:40;;;;;;;6.95;5.90;;;;;;;55.15;8.53;98929.97;5063017;28;20056;-70
2022/07/07 08:11:07;;;;;;;11.10;5.50;;;;;;;54.45;8.70;98937.63;5070536;28;20395;-70
2022/07/07 08:13:34;;;;;;;13.90;5.97;;;;;;;54.81;9.16;98933.91;5069117;28;20056;-70
2022/07/07 08:16:01;;;;;;;20.10;6.65;;;;;;;55.18;8.12;98948.75;5070965;28;20127;-71
2022/07/07 08:18:29;;;;;;;12.10;5.65;;;;;;;54.49;8.04;98937.13;5054227;28;20619;-70
2022/07/07 08:20:56;;;;;;;8.93;5.43;;;;;;;55.25;7.78;98929.78;5069946;28;20515;-70
2022/07/07 08:23:23;;;;;;;13.85;5.63;;;;;;;56.20;7.21;98956.78;5070485;28;20420;-71
2022/07/07 08:25:51;;;;;;;12.82;6.22;;;;;;;55.38;8.22;98950.69;5070982;28;20051;-70
2022/07/07 08:28:18;;;;;;;10.70;5.63;;;;;;;54.18;8.92;98949.34;5070580;28;20040;-70
2022/07/07 08:30:44;;;;;;;46.78;27.10;;;;;;;54.83;8.82;98954.91;5065849;28;20059;-71
2022/07/07 08:33:11;;;;;;;14.40;6.10;;;;;;;55.52;8.18;98942.56;5064183;28;20110;-70
2022/07/07 08:35:38;;;;;;;10.73;5.72;;;;;;;55.95;7.61;98954.66;5070916;28;20049;-70
2022/07/07 08:38:06;;;;;;;14.68;6.05;;;;;;;55.30;7.91;98955.41;5070170;28;20048;-69
2022/07/07 08:40:33;;;;;;;13.23;6.18;;;;;;;55.65;8.11;98947.00;5069374;28;20403;-70
2022/07/07 08:43:00;;;;;;;16.58;6.38;;;;;;;55.45;7.94;98948.84;5071693;28;20063;-70
2022/07/07 08:45:27;;;;;;;18.88;5.72;;;;;;;52.34;9.92;98962.41;5071582;28;20041;-70
2022/07/07 08:47:55;;;;;;;9.43;5.65;;;;;;;48.04;12.54;98937.78;5068289;28;20087;-70
2022/07/07 08:50:22;;;;;;;8.10;5.78;;;;;;;45.04;15.56;98935.34;5070614;28;20127;-70
2022/07/07 08:52:52;;;;;;;20.23;6.50;;;;;;;43.07;16.96;98920.72;5070417;28;20147;-70
2022/07/07 08:55:22;;;;;;;12.98;6.38;;;;;;;42.58;17.89;98925.63;5070371;28;20072;-70
2022/07/07 08:57:52;;;;;;;11.00;6.38;;;;;;;42.03;18.21;98926.06;5074231;28;20075;-69
2022/07/07 09:00:20;;;;;;;157.90;79.93;;;;;;;45.89;14.98;98932.66;5075483;28;20078;-71
2022/07/07 09:02:47;;;;;;;11.60;7.13;;;;;;;47.04;14.30;98923.63;5075025;28;20487;-71
2022/07/07 09:05:14;;;;;;;9.20;6.57;;;;;;;46.90;14.42;98922.34;5074503;28;20055;-69
2022/07/07 09:07:49;;;;;;;15.32;6.13;;;;;;;48.77;12.86;98922.72;5075162;28;20148;-71
2022/07/07 09:10:31;;;;;;;14.07;6.55;;;;;;;47.96;13.33;98925.25;5074017;28;20051;-70
2022/07/07 09:12:58;;;;;;;13.95;6.70;;;;;;;47.36;13.79;98920.66;5066403;28;20053;-69
2022/07/07 09:15:25;;;;;;;;;;;;;;;50.25;12.03;98930.38;5069203;28;20047;-71
2022/07/07 09:17:54;;;;;;;8.85;6.07;;;;;;;52.25;10.64;98936.50;5076061;28;20288;-71
2022/07/07 09:20:21;;;;;;;11.05;6.50;;;;;;;54.28;8.86;98935.13;5058535;28;20048;-70
2022/07/07 09:22:53;;;;;;;;;;;;;;;54.34;9.44;98932.53;5071261;28;20049;-69
2022/07/07 09:25:29;;;;;;;12.23;5.90;;;;;;;53.63;9.34;98923.53;5055801;28;20554;-70
2022/07/07 09:28:00;;;;;;;10.60;5.78;;;;;;;52.04;10.30;98933.53;5062588;28;20495;-70
2022/07/07 09:30:31;;;;;;;12.63;5.70;;;;;;;50.25;11.41;98939.25;5075031;28;20056;-70
2022/07/07 09:33:03;;;;;;;7.88;6.43;;;;;;;47.86;13.26;98931.06;5072477;28;20106;-70
2022/07/07 09:38:22;;;;;;;10.50;5.43;;;;;;;47.07;13.74;98940.09;5073999;28;20478;-71
2022/07/07 09:40:59;;;;;;;13.80;6.38;;;;;;;44.45;15.84;98934.53;5076013;28;20093;-71
2022/07/07 09:43:28;;;;;;;10.50;5.32;;;;;;;42.82;17.24;98924.56;5095107;28;20048;-70
2022/07/07 09:46:17;;;;;;;12.35;6.20;;;;;;;41.58;18.54;98920.28;5074509;28;20044;-70
2022/07/07 09:48:52;;;;;;;14.35;6.05;;;;;;;40.59;20.09;98911.03;5074312;28;20515;-70
2022/07/07 09:51:27;;;;;;;14.55;6.50;;;;;;;39.79;21.06;98916.81;5074052;28;20457;-70
2022/07/07 09:54:00;;;;;;;27.52;11.52;;;;;;;39.09;22.63;98911.16;5073869;28;20558;-70
2022/07/07 09:56:32;;;;;;;14.38;6.95;;;;;;;38.27;23.32;98904.56;5074408;28;20132;-72
2022/07/07 09:59:01;;;;;;;14.10;7.50;;;;;;;37.83;24.10;98912.66;5073696;28;20056;-70
2022/07/07 10:01:30;;;;;;;15.27;7.03;;;;;;;37.54;24.41;98919.06;5073560;28;20494;-71
2022/07/07 10:03:59;;;;;;;17.20;7.43;;;;;;;37.17;25.68;98918.53;5073166;28;20571;-70
2022/07/07 10:06:28;;;;;;;18.73;7.45;;;;;;;36.94;25.40;98922.78;5073788;28;20071;-70
2022/07/07 10:09:02;;;;;;;11.90;6.90;;;;;;;36.45;26.69;98922.19;5065088;28;20052;-70
2022/07/07 10:11:37;;;;;;;14.27;7.32;;;;;;;36.23;26.80;98922.06;5054959;28;20053;-73
2022/07/07 10:14:16;;;;;;;18.70;7.53;;;;;;;36.16;27.21;98922.59;5073697;28;20044;-70
2022/07/07 10:16:46;;;;;;;9.43;7.22;;;;;;;36.07;27.57;98919.94;5073161;28;20040;-71
2022/07/07 10:19:16;;;;;;;11.75;7.45;;;;;;;36.15;27.39;98923.91;5072487;28;20049;-71
2022/07/07 10:21:45;;;;;;;10.95;8.20;;;;;;;35.71;27.98;98932.38;5073824;28;20057;-71
2022/07/07 10:24:15;;;;;;;9.50;7.15;;;;;;;35.46;28.26;98920.91;5073261;28;20070;-70
2022/07/07 10:26:48;;;;;;;13.55;7.95;;;;;;;35.44;28.68;98930.09;5074213;28;20055;-71
2022/07/07 10:29:15;;;;;;;12.50;7.80;;;;;;;35.46;28.95;98926.69;5072588;28;20044;-73
2022/07/07 10:31:51;;;;;;;10.65;8.05;;;;;;;35.71;29.37;98932.38;5074125;28;20052;-70
2022/07/07 10:34:18;;;;;;;9.88;7.18;;;;;;;35.74;28.99;98922.66;5073089;28;20450;-71
2022/07/07 10:36:51;;;;;;;14.50;7.28;;;;;;;35.62;28.65;98928.88;5073554;28;20048;-71
2022/07/07 10:39:22;;;;;;;16.10;7.43;;;;;;;35.51;29.10;98935.41;5070730;28;20055;-70
2022/07/07 10:42:17;;;;;;;16.17;6.93;;;;;;;35.23;28.50;98925.72;5072970;28;20048;-73
2022/07/07 10:44:55;;;;;;;11.43;7.03;;;;;;;35.15;28.57;98930.38;5071326;28;20048;-74
2022/07/07 10:47:21;;;;;;;9.20;6.88;;;;;;;35.14;28.57;98923.81;5070883;28;20051;-69
2022/07/07 10:49:55;;;;;;;9.77;6.72;;;;;;;35.26;27.90;98933.38;5070960;28;20072;-69
2022/07/07 10:52:28;;;;;;;7.60;6.70;;;;;;;35.11;28.71;98941.41;5068572;28;20064;-70
2022/07/07 10:55:02;;;;;;;12.60;7.10;;;;;;;34.89;28.66;98926.75;5053404;28;20147;-71
2022/07/07 10:57:44;;;;;;;30.10;13.23;;;;;;;34.66;29.20;98927.84;5070556;28;20044;-69
2022/07/07 11:00:27;;;;;;;16.95;8.18;;;;;;;34.57;29.60;98920.13;5070403;28;20495;-64
2022/07/07 11:02:57;;;;;;;17.08;8.43;;;;;;;34.58;30.02;98926.72;5068685;28;20580;-69
2022/07/07 11:05:33;;;;;;;10.75;7.32;;;;;;;34.32;30.45;98920.91;5072134;28;20052;-69
2022/07/07 11:08:03;;;;;;;9.98;7.80;;;;;;;34.24;30.54;98918.94;5071179;28;20045;-73
2022/07/07 11:10:39;;;;;;;16.48;8.00;;;;;;;34.34;30.70;98924.06;5070546;28;20074;-66
2022/07/07 11:13:16;;;;;;;14.10;8.10;;;;;;;34.20;31.20;98912.59;5070213;28;20880;-68
2022/07/07 11:15:46;;;;;;;9.82;7.35;;;;;;;33.98;31.31;98906.59;5070758;28;20098;-71
2022/07/07 11:18:19;;;;;;;20.88;8.10;;;;;;;33.96;31.57;98909.97;5068208;28;20064;-71
2022/07/07 11:20:59;;;;;;;13.10;7.78;;;;;;;34.10;31.35;98911.97;5070105;28;20114;-70
2022/07/07 11:23:52;;;;;;;9.35;7.47;;;;;;;33.89;31.43;98909.63;5069639;28;20411;-65
2022/07/07 11:26:24;;;;;;;13.98;7.47;;;;;;;33.72;31.98;98906.50;5044512;28;20052;-70
2022/07/07 11:28:54;;;;;;;13.05;7.50;;;;;;;33.54;31.79;98917.50;5069138;28;20044;-66
2022/07/07 11:31:21;;;;;;;13.05;7.03;;;;;;;33.47;32.36;98913.75;5070039;28;20110;-69
2022/07/07 11:33:56;;;;;;;11.55;7.25;;;;;;;33.47;31.92;98922.41;5070629;28;20052;-69
2022/07/07 11:36:26;;;;;;;20.92;7.18;;;;;;;33.38;31.63;98916.78;5072264;28;20119;-70
2022/07/07 11:38:56;;;;;;;20.30;7.25;;;;;;;33.27;31.74;98905.03;5071529;28;20047;-69